This is the latest recevied weather packets stored in our database for station/object IU1WWE-10. If no packets are shown the sender has not sent any weather packets the latest 10 day(s).
| Time | Temp. | Humidity | Pressure | Rain* | Wind** | Luminosity | Snow |
|---|---|---|---|---|---|---|---|
| 1787917866 | 20° C | 90% | 1017.6 hPa | 6.6 mm | - | - | - |
| 1787917564 | 20° C | 92% | 1017.5 hPa | 6.6 mm | - | - | - |
| 1787917262 | 20° C | 90% | 1017.7 hPa | 6.6 mm | - | - | - |
| 1787916960 | 20° C | 90% | 1017.7 hPa | 6.6 mm | - | - | - |
| 1787916658 | 20° C | 90% | 1018 hPa | 6.6 mm | - | - | - |
| 1787916355 | 20° C | 89% | 1018 hPa | 6.6 mm | - | - | - |
| 1787916053 | 20° C | 90% | 1018 hPa | 6.6 mm | - | - | - |
| 1787915751 | 19.44° C | 90% | 1018.3 hPa | 6.6 mm | - | - | - |
| 1787915448 | 19.44° C | 91% | 1018.4 hPa | 6.6 mm | - | - | - |
| 1787915146 | 19.44° C | 93% | 1018.5 hPa | 6.6 mm | - | - | - |
| 1787914844 | 19.44° C | 93% | 1018.5 hPa | 6.6 mm | - | - | - |
| 1787914542 | 19.44° C | 95% | 1018.6 hPa | 6.6 mm | - | - | - |
| 1787914240 | 18.89° C | 96% | 1018.7 hPa | 6.6 mm | - | - | - |
| 1787913938 | 18.89° C | 96% | 1018.8 hPa | 6.6 mm | - | - | - |
| 1787913636 | 18.33° C | 96% | 1018.8 hPa | 6.6 mm | - | - | - |
| 1787913334 | 18.33° C | 96% | 1019 hPa | 6.6 mm | - | - | - |
| 1787913032 | 18.33° C | 96% | 1019 hPa | 6.6 mm | - | - | - |
| 1787912730 | 18.33° C | 96% | 1019 hPa | 6.6 mm | - | - | - |
| 1787912428 | 17.78° C | 95% | 1019.3 hPa | 6.35 mm | - | - | - |
| 1787912125 | 17.78° C | 95% | 1019.7 hPa | 6.1 mm | - | - | - |
| 1787911823 | 18.33° C | 94% | 1019.4 hPa | 5.59 mm | - | - | - |
| 1787911521 | 18.33° C | 95% | 1019 hPa | 5.33 mm | - | - | - |
| 1787911219 | 18.33° C | 94% | 1019 hPa | 5.08 mm | - | - | - |
| 1787910917 | 18.33° C | 93% | 1019.3 hPa | 4.83 mm | - | - | - |
| 1787910615 | 18.89° C | 93% | 1019 hPa | 4.57 mm | - | - | - |
* Rain since midnight (hover to see other rain measurements)
** Current wind speed in m/s (hover to see current wind gust speed)